sensor_id;sensor_type;location;lat;lon;timestamp;temperature;humidity
9271;DHT22;4673;53.458;9.940;2022-08-30T00:00:20;16.20;75.10
9271;DHT22;4673;53.458;9.940;2022-08-30T00:03:06;16.30;75.40
9271;DHT22;4673;53.458;9.940;2022-08-30T00:05:33;16.20;75.20
9271;DHT22;4673;53.458;9.940;2022-08-30T00:07:59;16.20;75.30
9271;DHT22;4673;53.458;9.940;2022-08-30T00:10:27;16.10;75.40
9271;DHT22;4673;53.458;9.940;2022-08-30T00:12:54;16.20;75.40
9271;DHT22;4673;53.458;9.940;2022-08-30T00:15:20;16.10;75.50
9271;DHT22;4673;53.458;9.940;2022-08-30T00:17:46;16.10;75.50
9271;DHT22;4673;53.458;9.940;2022-08-30T00:20:14;16.10;75.80
9271;DHT22;4673;53.458;9.940;2022-08-30T00:22:40;16.10;75.90
9271;DHT22;4673;53.458;9.940;2022-08-30T00:25:07;16.10;76.00
9271;DHT22;4673;53.458;9.940;2022-08-30T00:27:32;16.10;76.00
9271;DHT22;4673;53.458;9.940;2022-08-30T00:29:58;16.10;76.20
9271;DHT22;4673;53.458;9.940;2022-08-30T00:32:24;16.00;76.30
9271;DHT22;4673;53.458;9.940;2022-08-30T00:34:51;16.10;76.40
9271;DHT22;4673;53.458;9.940;2022-08-30T00:37:17;16.00;76.40
9271;DHT22;4673;53.458;9.940;2022-08-30T00:39:43;16.00;76.40
9271;DHT22;4673;53.458;9.940;2022-08-30T00:42:09;16.00;76.60
9271;DHT22;4673;53.458;9.940;2022-08-30T00:44:35;16.00;76.70
9271;DHT22;4673;53.458;9.940;2022-08-30T00:47:01;16.00;76.70
9271;DHT22;4673;53.458;9.940;2022-08-30T00:49:28;16.10;76.80
9271;DHT22;4673;53.458;9.940;2022-08-30T00:52:14;16.10;76.80
9271;DHT22;4673;53.458;9.940;2022-08-30T00:54:43;16.10;76.80
9271;DHT22;4673;53.458;9.940;2022-08-30T00:57:12;16.10;76.80
9271;DHT22;4673;53.458;9.940;2022-08-30T00:59:40;16.10;76.80
9271;DHT22;4673;53.458;9.940;2022-08-30T01:02:07;16.00;76.60
9271;DHT22;4673;53.458;9.940;2022-08-30T01:04:35;16.10;76.70
9271;DHT22;4673;53.458;9.940;2022-08-30T01:07:02;16.00;76.80
9271;DHT22;4673;53.458;9.940;2022-08-30T01:09:28;16.00;76.90
9271;DHT22;4673;53.458;9.940;2022-08-30T01:11:54;16.00;76.90
9271;DHT22;4673;53.458;9.940;2022-08-30T01:14:21;16.00;76.90
9271;DHT22;4673;53.458;9.940;2022-08-30T01:16:48;16.10;77.00
9271;DHT22;4673;53.458;9.940;2022-08-30T01:19:27;16.00;76.90
9271;DHT22;4673;53.458;9.940;2022-08-30T01:24:57;16.00;77.10
9271;DHT22;4673;53.458;9.940;2022-08-30T01:27:23;16.00;77.10
9271;DHT22;4673;53.458;9.940;2022-08-30T01:29:50;16.00;77.20
9271;DHT22;4673;53.458;9.940;2022-08-30T01:32:23;15.90;77.30
9271;DHT22;4673;53.458;9.940;2022-08-30T01:34:50;15.90;77.40
9271;DHT22;4673;53.458;9.940;2022-08-30T01:37:22;15.90;77.50
9271;DHT22;4673;53.458;9.940;2022-08-30T01:39:48;15.80;77.40
9271;DHT22;4673;53.458;9.940;2022-08-30T01:42:15;15.80;77.50
9271;DHT22;4673;53.458;9.940;2022-08-30T01:44:44;15.70;77.40
9271;DHT22;4673;53.458;9.940;2022-08-30T01:47:11;15.60;77.80
9271;DHT22;4673;53.458;9.940;2022-08-30T01:49:38;15.60;77.90
9271;DHT22;4673;53.458;9.940;2022-08-30T01:52:05;15.60;78.10
9271;DHT22;4673;53.458;9.940;2022-08-30T01:54:33;15.50;78.30
9271;DHT22;4673;53.458;9.940;2022-08-30T01:56:59;15.50;78.70
9271;DHT22;4673;53.458;9.940;2022-08-30T01:59:24;15.50;78.90
9271;DHT22;4673;53.458;9.940;2022-08-30T02:01:50;15.50;79.00
9271;DHT22;4673;53.458;9.940;2022-08-30T02:04:16;15.50;79.20
9271;DHT22;4673;53.458;9.940;2022-08-30T02:06:42;15.50;79.30
9271;DHT22;4673;53.458;9.940;2022-08-30T02:09:09;15.50;79.40
9271;DHT22;4673;53.458;9.940;2022-08-30T02:11:36;15.50;79.40
9271;DHT22;4673;53.458;9.940;2022-08-30T02:14:02;15.50;79.50
9271;DHT22;4673;53.458;9.940;2022-08-30T02:16:27;15.50;79.60
9271;DHT22;4673;53.458;9.940;2022-08-30T02:18:54;15.50;79.70
9271;DHT22;4673;53.458;9.940;2022-08-30T02:21:22;15.50;79.80
9271;DHT22;4673;53.458;9.940;2022-08-30T02:23:48;15.50;79.90
9271;DHT22;4673;53.458;9.940;2022-08-30T02:26:15;15.50;79.90
9271;DHT22;4673;53.458;9.940;2022-08-30T02:28:41;15.50;80.00
9271;DHT22;4673;53.458;9.940;2022-08-30T02:31:07;15.50;80.10
9271;DHT22;4673;53.458;9.940;2022-08-30T02:33:32;15.40;80.10
9271;DHT22;4673;53.458;9.940;2022-08-30T02:35:58;15.40;80.30
9271;DHT22;4673;53.458;9.940;2022-08-30T02:38:24;15.40;80.40
9271;DHT22;4673;53.458;9.940;2022-08-30T02:40:51;15.40;80.50
9271;DHT22;4673;53.458;9.940;2022-08-30T02:43:17;15.30;80.60
9271;DHT22;4673;53.458;9.940;2022-08-30T02:45:43;15.30;80.70
9271;DHT22;4673;53.458;9.940;2022-08-30T02:48:09;15.40;80.80
9271;DHT22;4673;53.458;9.940;2022-08-30T02:50:46;15.40;80.80
9271;DHT22;4673;53.458;9.940;2022-08-30T02:53:13;15.30;80.90
9271;DHT22;4673;53.458;9.940;2022-08-30T02:55:38;15.30;80.90
9271;DHT22;4673;53.458;9.940;2022-08-30T02:58:05;15.40;81.00
9271;DHT22;4673;53.458;9.940;2022-08-30T03:00:31;15.40;81.10
9271;DHT22;4673;53.458;9.940;2022-08-30T03:02:57;15.40;80.70
9271;DHT22;4673;53.458;9.940;2022-08-30T03:05:23;15.40;80.70
9271;DHT22;4673;53.458;9.940;2022-08-30T03:07:49;15.30;80.80
9271;DHT22;4673;53.458;9.940;2022-08-30T03:10:15;15.40;80.80
9271;DHT22;4673;53.458;9.940;2022-08-30T03:12:41;15.40;80.70
9271;DHT22;4673;53.458;9.940;2022-08-30T03:15:10;15.40;80.80
9271;DHT22;4673;53.458;9.940;2022-08-30T03:17:37;15.40;80.50
9271;DHT22;4673;53.458;9.940;2022-08-30T03:20:04;15.40;80.60
9271;DHT22;4673;53.458;9.940;2022-08-30T03:22:30;15.40;80.60
9271;DHT22;4673;53.458;9.940;2022-08-30T03:24:59;15.50;80.70
9271;DHT22;4673;53.458;9.940;2022-08-30T03:27:26;15.30;80.40
9271;DHT22;4673;53.458;9.940;2022-08-30T03:29:52;15.30;80.50
9271;DHT22;4673;53.458;9.940;2022-08-30T03:32:18;15.40;80.50
9271;DHT22;4673;53.458;9.940;2022-08-30T03:34:44;15.40;80.50
9271;DHT22;4673;53.458;9.940;2022-08-30T03:37:09;15.40;80.20
9271;DHT22;4673;53.458;9.940;2022-08-30T03:39:35;15.40;80.40
9271;DHT22;4673;53.458;9.940;2022-08-30T03:42:01;15.50;80.50
9271;DHT22;4673;53.458;9.940;2022-08-30T03:44:26;15.50;80.40
9271;DHT22;4673;53.458;9.940;2022-08-30T03:46:52;15.50;80.50
9271;DHT22;4673;53.458;9.940;2022-08-30T03:49:18;15.40;80.20
9271;DHT22;4673;53.458;9.940;2022-08-30T03:51:45;15.40;80.30
9271;DHT22;4673;53.458;9.940;2022-08-30T03:54:12;15.40;80.40
9271;DHT22;4673;53.458;9.940;2022-08-30T03:56:37;15.30;80.70
9271;DHT22;4673;53.458;9.940;2022-08-30T03:59:04;15.30;81.10
9271;DHT22;4673;53.458;9.940;2022-08-30T04:01:29;15.30;81.60
9271;DHT22;4673;53.458;9.940;2022-08-30T04:03:55;15.30;81.90
9271;DHT22;4673;53.458;9.940;2022-08-30T04:06:21;15.30;82.30
9271;DHT22;4673;53.458;9.940;2022-08-30T04:08:47;15.20;82.60
9271;DHT22;4673;53.458;9.940;2022-08-30T04:11:13;15.30;83.20
9271;DHT22;4673;53.458;9.940;2022-08-30T04:13:44;15.30;83.50
9271;DHT22;4673;53.458;9.940;2022-08-30T04:16:10;15.30;83.60
9271;DHT22;4673;53.458;9.940;2022-08-30T04:18:36;15.30;84.30
9271;DHT22;4673;53.458;9.940;2022-08-30T04:21:03;15.30;84.60
9271;DHT22;4673;53.458;9.940;2022-08-30T04:23:28;15.30;85.20
9271;DHT22;4673;53.458;9.940;2022-08-30T04:25:55;15.10;86.00
9271;DHT22;4673;53.458;9.940;2022-08-30T04:28:21;15.10;86.70
9271;DHT22;4673;53.458;9.940;2022-08-30T04:30:47;15.10;87.50
9271;DHT22;4673;53.458;9.940;2022-08-30T04:33:14;15.10;88.00
9271;DHT22;4673;53.458;9.940;2022-08-30T04:35:42;15.10;88.40
9271;DHT22;4673;53.458;9.940;2022-08-30T04:38:08;15.10;88.80
9271;DHT22;4673;53.458;9.940;2022-08-30T04:40:33;15.10;89.10
9271;DHT22;4673;53.458;9.940;2022-08-30T04:42:59;15.20;89.50
9271;DHT22;4673;53.458;9.940;2022-08-30T04:45:26;15.30;89.90
9271;DHT22;4673;53.458;9.940;2022-08-30T04:47:51;15.30;90.10
9271;DHT22;4673;53.458;9.940;2022-08-30T04:50:18;15.30;90.30
9271;DHT22;4673;53.458;9.940;2022-08-30T04:52:50;15.30;90.50
9271;DHT22;4673;53.458;9.940;2022-08-30T04:55:16;15.30;90.60
9271;DHT22;4673;53.458;9.940;2022-08-30T04:57:45;15.20;90.60
9271;DHT22;4673;53.458;9.940;2022-08-30T05:00:12;15.20;90.70
9271;DHT22;4673;53.458;9.940;2022-08-30T05:02:39;15.20;90.90
9271;DHT22;4673;53.458;9.940;2022-08-30T05:05:06;15.20;91.20
9271;DHT22;4673;53.458;9.940;2022-08-30T05:07:50;15.20;91.50
9271;DHT22;4673;53.458;9.940;2022-08-30T05:10:16;15.20;91.70
9271;DHT22;4673;53.458;9.940;2022-08-30T05:12:42;15.20;91.90
9271;DHT22;4673;53.458;9.940;2022-08-30T05:15:10;15.20;91.90
9271;DHT22;4673;53.458;9.940;2022-08-30T05:17:37;15.30;92.20
9271;DHT22;4673;53.458;9.940;2022-08-30T05:20:05;15.20;92.10
9271;DHT22;4673;53.458;9.940;2022-08-30T05:22:31;15.30;92.20
9271;DHT22;4673;53.458;9.940;2022-08-30T05:24:59;15.20;92.00
9271;DHT22;4673;53.458;9.940;2022-08-30T05:27:25;15.30;92.40
9271;DHT22;4673;53.458;9.940;2022-08-30T05:29:51;15.40;92.40
9271;DHT22;4673;53.458;9.940;2022-08-30T05:32:17;15.40;92.30
9271;DHT22;4673;53.458;9.940;2022-08-30T05:34:54;15.40;92.10
9271;DHT22;4673;53.458;9.940;2022-08-30T05:37:46;15.40;91.90
9271;DHT22;4673;53.458;9.940;2022-08-30T05:40:39;15.30;91.60
9271;DHT22;4673;53.458;9.940;2022-08-30T05:43:13;15.30;92.00
9271;DHT22;4673;53.458;9.940;2022-08-30T05:48:57;15.30;92.20
9271;DHT22;4673;53.458;9.940;2022-08-30T05:52:27;15.40;91.80
9271;DHT22;4673;53.458;9.940;2022-08-30T05:58:02;15.70;92.40
9271;DHT22;4673;53.458;9.940;2022-08-30T06:00:39;15.80;92.20
9271;DHT22;4673;53.458;9.940;2022-08-30T06:03:19;16.10;92.20
9271;DHT22;4673;53.458;9.940;2022-08-30T06:06:11;16.10;91.10
9271;DHT22;4673;53.458;9.940;2022-08-30T06:09:20;16.30;90.50
9271;DHT22;4673;53.458;9.940;2022-08-30T06:12:00;16.30;90.10
9271;DHT22;4673;53.458;9.940;2022-08-30T06:14:41;16.50;89.70
9271;DHT22;4673;53.458;9.940;2022-08-30T06:17:18;16.50;89.50
9271;DHT22;4673;53.458;9.940;2022-08-30T06:20:06;16.70;89.40
9271;DHT22;4673;53.458;9.940;2022-08-30T06:22:35;16.80;88.90
9271;DHT22;4673;53.458;9.940;2022-08-30T06:25:19;16.70;87.90
9271;DHT22;4673;53.458;9.940;2022-08-30T06:27:47;16.80;88.00
9271;DHT22;4673;53.458;9.940;2022-08-30T06:30:18;16.60;86.80
9271;DHT22;4673;53.458;9.940;2022-08-30T06:32:47;16.70;86.70
9271;DHT22;4673;53.458;9.940;2022-08-30T06:35:13;16.70;86.60
9271;DHT22;4673;53.458;9.940;2022-08-30T06:37:47;16.70;87.00
9271;DHT22;4673;53.458;9.940;2022-08-30T06:40:13;16.90;87.40
9271;DHT22;4673;53.458;9.940;2022-08-30T06:42:41;16.80;85.60
9271;DHT22;4673;53.458;9.940;2022-08-30T06:45:08;16.80;85.10
9271;DHT22;4673;53.458;9.940;2022-08-30T06:47:34;16.90;85.80
9271;DHT22;4673;53.458;9.940;2022-08-30T06:50:00;17.10;85.40
9271;DHT22;4673;53.458;9.940;2022-08-30T06:52:26;17.00;83.90
9271;DHT22;4673;53.458;9.940;2022-08-30T06:54:53;16.80;84.00
9271;DHT22;4673;53.458;9.940;2022-08-30T06:57:19;16.70;84.50
9271;DHT22;4673;53.458;9.940;2022-08-30T06:59:45;16.60;84.50
9271;DHT22;4673;53.458;9.940;2022-08-30T07:02:11;16.50;84.90
9271;DHT22;4673;53.458;9.940;2022-08-30T07:04:36;16.40;85.10
9271;DHT22;4673;53.458;9.940;2022-08-30T07:07:03;16.40;85.30
9271;DHT22;4673;53.458;9.940;2022-08-30T07:09:29;16.40;85.90
9271;DHT22;4673;53.458;9.940;2022-08-30T07:11:54;16.30;85.80
9271;DHT22;4673;53.458;9.940;2022-08-30T07:14:21;16.40;86.70
9271;DHT22;4673;53.458;9.940;2022-08-30T07:16:47;16.50;86.30
9271;DHT22;4673;53.458;9.940;2022-08-30T07:19:12;16.80;86.70
9271;DHT22;4673;53.458;9.940;2022-08-30T07:21:41;17.10;86.60
9271;DHT22;4673;53.458;9.940;2022-08-30T07:24:11;17.60;86.70
9271;DHT22;4673;53.458;9.940;2022-08-30T07:26:41;18.10;85.10
9271;DHT22;4673;53.458;9.940;2022-08-30T07:29:07;18.40;81.50
9271;DHT22;4673;53.458;9.940;2022-08-30T07:31:34;18.80;82.00
9271;DHT22;4673;53.458;9.940;2022-08-30T07:34:04;19.10;80.60
9271;DHT22;4673;53.458;9.940;2022-08-30T07:36:30;19.40;74.60
9271;DHT22;4673;53.458;9.940;2022-08-30T07:38:56;19.40;74.90
9271;DHT22;4673;53.458;9.940;2022-08-30T07:41:28;19.60;74.60
9271;DHT22;4673;53.458;9.940;2022-08-30T07:43:55;19.70;72.30
9271;DHT22;4673;53.458;9.940;2022-08-30T07:46:21;20.00;72.70
9271;DHT22;4673;53.458;9.940;2022-08-30T07:48:47;20.30;73.00
9271;DHT22;4673;53.458;9.940;2022-08-30T07:51:16;20.40;70.60
9271;DHT22;4673;53.458;9.940;2022-08-30T07:53:43;20.30;69.00
9271;DHT22;4673;53.458;9.940;2022-08-30T07:56:08;20.30;69.50
9271;DHT22;4673;53.458;9.940;2022-08-30T07:58:34;20.50;68.60
9271;DHT22;4673;53.458;9.940;2022-08-30T08:01:04;20.10;67.80
9271;DHT22;4673;53.458;9.940;2022-08-30T08:03:30;20.10;69.20
9271;DHT22;4673;53.458;9.940;2022-08-30T08:05:56;20.20;69.00
9271;DHT22;4673;53.458;9.940;2022-08-30T08:08:24;20.40;68.30
9271;DHT22;4673;53.458;9.940;2022-08-30T08:10:50;20.60;68.10
9271;DHT22;4673;53.458;9.940;2022-08-30T08:13:16;20.70;67.40
9271;DHT22;4673;53.458;9.940;2022-08-30T08:15:42;20.80;66.90
9271;DHT22;4673;53.458;9.940;2022-08-30T08:18:08;21.00;66.60
9271;DHT22;4673;53.458;9.940;2022-08-30T08:20:34;21.00;65.60
9271;DHT22;4673;53.458;9.940;2022-08-30T08:23:00;21.10;65.40
9271;DHT22;4673;53.458;9.940;2022-08-30T08:25:27;21.30;64.70
9271;DHT22;4673;53.458;9.940;2022-08-30T08:27:53;20.90;64.40
9271;DHT22;4673;53.458;9.940;2022-08-30T08:30:20;20.90;65.80
9271;DHT22;4673;53.458;9.940;2022-08-30T08:32:46;21.10;65.70
9271;DHT22;4673;53.458;9.940;2022-08-30T08:35:14;21.10;64.90
9271;DHT22;4673;53.458;9.940;2022-08-30T08:37:40;21.30;65.30
9271;DHT22;4673;53.458;9.940;2022-08-30T08:40:07;21.40;64.40
9271;DHT22;4673;53.458;9.940;2022-08-30T08:45:24;21.50;63.00
9271;DHT22;4673;53.458;9.940;2022-08-30T08:48:00;21.20;64.50
9271;DHT22;4673;53.458;9.940;2022-08-30T08:50:28;21.20;65.30
9271;DHT22;4673;53.458;9.940;2022-08-30T08:53:16;21.40;64.50
9271;DHT22;4673;53.458;9.940;2022-08-30T08:56:02;21.50;63.90
9271;DHT22;4673;53.458;9.940;2022-08-30T08:58:31;21.40;62.70
9271;DHT22;4673;53.458;9.940;2022-08-30T09:00:59;21.10;64.00
9271;DHT22;4673;53.458;9.940;2022-08-30T09:03:28;20.80;64.10
9271;DHT22;4673;53.458;9.940;2022-08-30T09:05:54;20.70;65.20
9271;DHT22;4673;53.458;9.940;2022-08-30T09:08:22;20.30;66.10
9271;DHT22;4673;53.458;9.940;2022-08-30T09:10:59;19.90;67.90
9271;DHT22;4673;53.458;9.940;2022-08-30T09:13:26;20.10;68.60
9271;DHT22;4673;53.458;9.940;2022-08-30T09:15:53;20.10;67.90
9271;DHT22;4673;53.458;9.940;2022-08-30T09:18:20;20.40;67.60
9271;DHT22;4673;53.458;9.940;2022-08-30T09:21:06;20.60;66.30
9271;DHT22;4673;53.458;9.940;2022-08-30T09:23:31;20.90;65.80
9271;DHT22;4673;53.458;9.940;2022-08-30T09:26:08;21.10;64.30
9271;DHT22;4673;53.458;9.940;2022-08-30T09:28:49;21.50;63.30
9271;DHT22;4673;53.458;9.940;2022-08-30T09:31:30;21.60;61.90
9271;DHT22;4673;53.458;9.940;2022-08-30T09:34:14;21.70;60.60
9271;DHT22;4673;53.458;9.940;2022-08-30T09:36:45;21.70;59.10
9271;DHT22;4673;53.458;9.940;2022-08-30T09:39:20;21.40;59.50
9271;DHT22;4673;53.458;9.940;2022-08-30T09:41:51;21.40;60.80
9271;DHT22;4673;53.458;9.940;2022-08-30T09:44:25;21.60;60.00
9271;DHT22;4673;53.458;9.940;2022-08-30T09:46:57;21.80;59.60
9271;DHT22;4673;53.458;9.940;2022-08-30T09:49:40;21.70;58.90
9271;DHT22;4673;53.458;9.940;2022-08-30T09:52:33;21.60;59.20
9271;DHT22;4673;53.458;9.940;2022-08-30T09:55:31;21.80;58.70
9271;DHT22;4673;53.458;9.940;2022-08-30T09:58:10;22.10;58.30
9271;DHT22;4673;53.458;9.940;2022-08-30T10:00:49;22.40;57.40
9271;DHT22;4673;53.458;9.940;2022-08-30T10:03:39;22.60;56.70
9271;DHT22;4673;53.458;9.940;2022-08-30T10:22:44;21.70;58.70
9271;DHT22;4673;53.458;9.940;2022-08-30T10:25:44;21.70;58.40
9271;DHT22;4673;53.458;9.940;2022-08-30T10:31:09;21.70;56.60
9271;DHT22;4673;53.458;9.940;2022-08-30T10:33:39;21.60;57.70
9271;DHT22;4673;53.458;9.940;2022-08-30T10:36:11;21.60;58.10
9271;DHT22;4673;53.458;9.940;2022-08-30T10:38:47;21.80;57.70
9271;DHT22;4673;53.458;9.940;2022-08-30T10:41:36;21.90;57.00
9271;DHT22;4673;53.458;9.940;2022-08-30T10:44:26;22.00;55.50
9271;DHT22;4673;53.458;9.940;2022-08-30T10:49:31;22.10;54.60
9271;DHT22;4673;53.458;9.940;2022-08-30T10:54:50;22.40;53.90
9271;DHT22;4673;53.458;9.940;2022-08-30T10:57:17;22.50;51.40
9271;DHT22;4673;53.458;9.940;2022-08-30T10:59:50;22.50;51.50
9271;DHT22;4673;53.458;9.940;2022-08-30T11:07:50;23.10;50.40
9271;DHT22;4673;53.458;9.940;2022-08-30T11:10:28;22.80;49.30
9271;DHT22;4673;53.458;9.940;2022-08-30T11:13:06;22.90;50.90
9271;DHT22;4673;53.458;9.940;2022-08-30T11:15:59;22.90;51.50
9271;DHT22;4673;53.458;9.940;2022-08-30T11:18:28;23.00;51.20
9271;DHT22;4673;53.458;9.940;2022-08-30T11:21:34;23.10;50.80
9271;DHT22;4673;53.458;9.940;2022-08-30T11:24:04;23.20;50.10
9271;DHT22;4673;53.458;9.940;2022-08-30T11:31:59;23.00;49.20
9271;DHT22;4673;53.458;9.940;2022-08-30T11:39:56;22.20;49.90
9271;DHT22;4673;53.458;9.940;2022-08-30T11:42:42;22.10;50.00
9271;DHT22;4673;53.458;9.940;2022-08-30T11:56:09;21.40;51.60
9271;DHT22;4673;53.458;9.940;2022-08-30T11:58:56;21.20;50.50
9271;DHT22;4673;53.458;9.940;2022-08-30T12:04:04;21.00;52.60
9271;DHT22;4673;53.458;9.940;2022-08-30T12:14:03;22.80;49.20
9271;DHT22;4673;53.458;9.940;2022-08-30T12:16:42;22.40;49.70
9271;DHT22;4673;53.458;9.940;2022-08-30T12:19:28;22.20;51.90
9271;DHT22;4673;53.458;9.940;2022-08-30T12:21:56;22.00;51.90
9271;DHT22;4673;53.458;9.940;2022-08-30T12:24:38;22.00;51.80
9271;DHT22;4673;53.458;9.940;2022-08-30T12:27:27;21.80;52.00
9271;DHT22;4673;53.458;9.940;2022-08-30T12:29:59;21.50;52.40
9271;DHT22;4673;53.458;9.940;2022-08-30T12:32:27;21.40;53.20
9271;DHT22;4673;53.458;9.940;2022-08-30T12:35:01;21.40;53.30
9271;DHT22;4673;53.458;9.940;2022-08-30T12:37:34;21.50;53.40
9271;DHT22;4673;53.458;9.940;2022-08-30T12:40:11;21.50;53.50
9271;DHT22;4673;53.458;9.940;2022-08-30T12:42:39;21.40;53.00
9271;DHT22;4673;53.458;9.940;2022-08-30T12:45:13;21.40;52.70
9271;DHT22;4673;53.458;9.940;2022-08-30T12:47:44;21.50;53.20
9271;DHT22;4673;53.458;9.940;2022-08-30T12:50:18;21.70;51.70
9271;DHT22;4673;53.458;9.940;2022-08-30T12:52:47;21.70;51.70
9271;DHT22;4673;53.458;9.940;2022-08-30T12:55:23;21.80;50.80
9271;DHT22;4673;53.458;9.940;2022-08-30T12:58:03;21.60;50.10
9271;DHT22;4673;53.458;9.940;2022-08-30T13:00:36;21.50;50.90
9271;DHT22;4673;53.458;9.940;2022-08-30T13:03:28;21.40;50.00
9271;DHT22;4673;53.458;9.940;2022-08-30T13:05:57;21.30;50.20
9271;DHT22;4673;53.458;9.940;2022-08-30T13:08:25;21.20;51.00
9271;DHT22;4673;53.458;9.940;2022-08-30T13:11:00;21.30;50.80
9271;DHT22;4673;53.458;9.940;2022-08-30T13:13:35;21.50;49.80
9271;DHT22;4673;53.458;9.940;2022-08-30T13:18:37;22.00;49.00
9271;DHT22;4673;53.458;9.940;2022-08-30T13:21:22;22.10;46.40
9271;DHT22;4673;53.458;9.940;2022-08-30T13:23:49;22.10;47.00
9271;DHT22;4673;53.458;9.940;2022-08-30T13:26:15;21.80;47.10
9271;DHT22;4673;53.458;9.940;2022-08-30T13:28:46;21.80;49.20
9271;DHT22;4673;53.458;9.940;2022-08-30T13:31:12;22.10;47.60
9271;DHT22;4673;53.458;9.940;2022-08-30T13:33:38;22.50;45.00
9271;DHT22;4673;53.458;9.940;2022-08-30T13:36:04;22.60;45.60
9271;DHT22;4673;53.458;9.940;2022-08-30T13:38:30;22.60;45.20
9271;DHT22;4673;53.458;9.940;2022-08-30T13:40:55;22.10;44.60
9271;DHT22;4673;53.458;9.940;2022-08-30T13:43:21;22.00;46.00
9271;DHT22;4673;53.458;9.940;2022-08-30T13:45:46;22.10;46.30
9271;DHT22;4673;53.458;9.940;2022-08-30T13:48:13;22.00;46.40
9271;DHT22;4673;53.458;9.940;2022-08-30T13:50:40;22.10;45.80
9271;DHT22;4673;53.458;9.940;2022-08-30T13:53:07;21.90;46.70
9271;DHT22;4673;53.458;9.940;2022-08-30T13:55:37;22.10;47.10
9271;DHT22;4673;53.458;9.940;2022-08-30T13:58:04;22.10;45.90
9271;DHT22;4673;53.458;9.940;2022-08-30T14:00:29;22.00;46.00
9271;DHT22;4673;53.458;9.940;2022-08-30T14:02:55;21.90;46.00
9271;DHT22;4673;53.458;9.940;2022-08-30T14:05:29;21.90;46.20
9271;DHT22;4673;53.458;9.940;2022-08-30T14:07:56;21.80;46.50
9271;DHT22;4673;53.458;9.940;2022-08-30T14:10:25;21.80;46.90
9271;DHT22;4673;53.458;9.940;2022-08-30T14:12:51;21.70;47.00
9271;DHT22;4673;53.458;9.940;2022-08-30T14:15:17;21.70;46.80
9271;DHT22;4673;53.458;9.940;2022-08-30T14:17:43;21.70;46.60
9271;DHT22;4673;53.458;9.940;2022-08-30T14:20:09;21.70;46.50
9271;DHT22;4673;53.458;9.940;2022-08-30T14:22:35;21.60;46.20
9271;DHT22;4673;53.458;9.940;2022-08-30T14:25:00;21.60;45.80
9271;DHT22;4673;53.458;9.940;2022-08-30T14:27:27;21.60;45.80
9271;DHT22;4673;53.458;9.940;2022-08-30T14:29:53;21.60;45.60
9271;DHT22;4673;53.458;9.940;2022-08-30T14:32:19;21.70;45.80
9271;DHT22;4673;53.458;9.940;2022-08-30T14:34:44;21.80;45.40
9271;DHT22;4673;53.458;9.940;2022-08-30T14:37:11;21.90;45.40
9271;DHT22;4673;53.458;9.940;2022-08-30T14:39:37;22.00;44.10
9271;DHT22;4673;53.458;9.940;2022-08-30T14:42:03;21.90;43.10
9271;DHT22;4673;53.458;9.940;2022-08-30T14:44:29;21.80;42.80
9271;DHT22;4673;53.458;9.940;2022-08-30T14:46:55;21.60;43.90
9271;DHT22;4673;53.458;9.940;2022-08-30T14:49:21;21.20;43.40
9271;DHT22;4673;53.458;9.940;2022-08-30T14:51:47;21.10;44.10
9271;DHT22;4673;53.458;9.940;2022-08-30T14:54:15;21.00;44.50
9271;DHT22;4673;53.458;9.940;2022-08-30T14:56:41;21.00;44.00
9271;DHT22;4673;53.458;9.940;2022-08-30T14:59:07;21.00;44.40
9271;DHT22;4673;53.458;9.940;2022-08-30T15:01:33;21.10;44.00
9271;DHT22;4673;53.458;9.940;2022-08-30T15:03:59;21.20;43.70
9271;DHT22;4673;53.458;9.940;2022-08-30T15:06:25;21.30;43.60
9271;DHT22;4673;53.458;9.940;2022-08-30T15:08:51;21.40;43.10
9271;DHT22;4673;53.458;9.940;2022-08-30T15:11:19;21.40;42.70
9271;DHT22;4673;53.458;9.940;2022-08-30T15:13:45;21.40;42.80
9271;DHT22;4673;53.458;9.940;2022-08-30T15:16:17;21.50;41.50
9271;DHT22;4673;53.458;9.940;2022-08-30T15:18:43;21.50;41.90
9271;DHT22;4673;53.458;9.940;2022-08-30T15:21:10;21.50;41.60
9271;DHT22;4673;53.458;9.940;2022-08-30T15:23:37;21.40;41.50
9271;DHT22;4673;53.458;9.940;2022-08-30T15:26:03;21.20;41.80
9271;DHT22;4673;53.458;9.940;2022-08-30T15:28:28;21.20;41.60
9271;DHT22;4673;53.458;9.940;2022-08-30T15:30:54;21.20;41.00
9271;DHT22;4673;53.458;9.940;2022-08-30T15:33:21;21.20;40.90
9271;DHT22;4673;53.458;9.940;2022-08-30T15:35:47;21.20;41.00
9271;DHT22;4673;53.458;9.940;2022-08-30T15:38:13;21.20;41.10
9271;DHT22;4673;53.458;9.940;2022-08-30T15:40:39;21.20;40.60
9271;DHT22;4673;53.458;9.940;2022-08-30T15:43:05;21.10;40.80
9271;DHT22;4673;53.458;9.940;2022-08-30T15:45:31;20.90;41.50
9271;DHT22;4673;53.458;9.940;2022-08-30T15:48:00;20.90;41.50
9271;DHT22;4673;53.458;9.940;2022-08-30T15:50:26;20.80;41.80
9271;DHT22;4673;53.458;9.940;2022-08-30T15:52:52;20.80;42.00
9271;DHT22;4673;53.458;9.940;2022-08-30T15:55:18;20.70;42.70
9271;DHT22;4673;53.458;9.940;2022-08-30T15:57:43;20.70;42.60
9271;DHT22;4673;53.458;9.940;2022-08-30T16:00:09;20.50;42.60
9271;DHT22;4673;53.458;9.940;2022-08-30T16:02:36;20.50;42.50
9271;DHT22;4673;53.458;9.940;2022-08-30T16:05:02;20.40;42.40
9271;DHT22;4673;53.458;9.940;2022-08-30T16:07:28;20.40;43.00
9271;DHT22;4673;53.458;9.940;2022-08-30T16:09:54;20.40;43.20
9271;DHT22;4673;53.458;9.940;2022-08-30T16:12:20;20.40;43.10
9271;DHT22;4673;53.458;9.940;2022-08-30T16:14:46;20.50;43.60
9271;DHT22;4673;53.458;9.940;2022-08-30T16:17:11;20.50;44.10
9271;DHT22;4673;53.458;9.940;2022-08-30T16:19:37;20.50;44.10
9271;DHT22;4673;53.458;9.940;2022-08-30T16:22:03;20.50;45.00
9271;DHT22;4673;53.458;9.940;2022-08-30T16:24:29;20.40;44.60
9271;DHT22;4673;53.458;9.940;2022-08-30T16:26:54;20.30;44.50
9271;DHT22;4673;53.458;9.940;2022-08-30T16:29:20;20.30;44.90
9271;DHT22;4673;53.458;9.940;2022-08-30T16:31:46;20.10;45.00
9271;DHT22;4673;53.458;9.940;2022-08-30T16:34:14;20.10;45.50
9271;DHT22;4673;53.458;9.940;2022-08-30T16:36:40;20.00;45.70
9271;DHT22;4673;53.458;9.940;2022-08-30T16:39:07;19.90;46.00
9271;DHT22;4673;53.458;9.940;2022-08-30T16:41:35;19.80;46.20
9271;DHT22;4673;53.458;9.940;2022-08-30T16:44:00;19.70;46.80
9271;DHT22;4673;53.458;9.940;2022-08-30T16:46:26;19.70;46.90
9271;DHT22;4673;53.458;9.940;2022-08-30T16:48:52;19.60;46.70
9271;DHT22;4673;53.458;9.940;2022-08-30T16:51:21;19.60;46.40
9271;DHT22;4673;53.458;9.940;2022-08-30T16:53:47;19.50;46.10
9271;DHT22;4673;53.458;9.940;2022-08-30T16:56:18;19.40;46.50
9271;DHT22;4673;53.458;9.940;2022-08-30T16:58:45;19.40;45.70
9271;DHT22;4673;53.458;9.940;2022-08-30T17:01:11;19.30;44.90
9271;DHT22;4673;53.458;9.940;2022-08-30T17:03:38;19.30;43.20
9271;DHT22;4673;53.458;9.940;2022-08-30T17:06:04;19.20;40.20
9271;DHT22;4673;53.458;9.940;2022-08-30T17:08:30;19.10;40.30
9271;DHT22;4673;53.458;9.940;2022-08-30T17:10:55;19.00;39.60
9271;DHT22;4673;53.458;9.940;2022-08-30T17:13:21;19.00;38.40
9271;DHT22;4673;53.458;9.940;2022-08-30T17:15:47;18.90;38.10
9271;DHT22;4673;53.458;9.940;2022-08-30T17:18:14;18.80;36.60
9271;DHT22;4673;53.458;9.940;2022-08-30T17:20:41;18.70;35.70
9271;DHT22;4673;53.458;9.940;2022-08-30T17:23:07;18.70;36.40
9271;DHT22;4673;53.458;9.940;2022-08-30T17:25:32;18.60;36.10
9271;DHT22;4673;53.458;9.940;2022-08-30T17:27:58;18.50;35.80
9271;DHT22;4673;53.458;9.940;2022-08-30T17:30:24;18.50;36.10
9271;DHT22;4673;53.458;9.940;2022-08-30T17:32:50;18.40;36.00